Aviosuperficie Moncucco

LIVV · Piamonte, Italia

METAR pasados LIVV · Aviosuperficie Moncucco

A continuación puedes ver los METAR de los últimos días. Selecciona un año para ver los METAR más antiguos, desde el año 2007 en adelante.

25 de febrero de 2024

Hora Código Tiempo Temp. Visibilidad Cielo nuboso Viento METAR/SPECI
09:50
V
7 °C 10 km+ - 240° 240° 3 kt METAR LIMF 250850Z 24003KT 190V280 CAVOK 07/03 Q1010
09:20
V
6 °C 10 km+ - 280° 280° 4 kt METAR LIMF 250820Z 28004KT CAVOK 06/03 Q1011
08:50
V
5 °C 10 km+ - 270° 270° 4 kt METAR LIMF 250750Z 27004KT 240V300 CAVOK 05/01 Q1011
08:20
V
4 °C 10 km+ - 240° 240° 3 kt METAR LIMF 250720Z 24003KT 230V290 9999 FEW050 04/02 Q1010
07:50
V
4 °C 10 km+ - 310° 310° 4 kt METAR LIMF 250650Z 31004KT 280V340 9999 SCT050 04/02 Q1010
07:20
V
5 °C 10 km+ - 310° 310° 4 kt METAR LIMF 250620Z 31004KT 270V340 9999 FEW020 SCT040 05/03 Q1010
06:50
V
5 °C 10 km+ - 340° 340° 3 kt METAR LIMF 250550Z 34003KT 9999 SCT015 SCT030 05/04 Q1010
06:20
M
5 °C 10 km+ 3.000 ft 120° 120° 2 kt METAR LIMF 250520Z 12002KT 9999 SCT015 BKN030 05/04 Q1010
05:50
V
6 °C 10 km+ - 300° 300° 3 kt METAR LIMF 250450Z 30003KT 280V340 9999 SCT015 SCT030 06/03 Q1010
05:20
M
5 °C 10 km+ 3.000 ft 290° 290° 4 kt METAR LIMF 250420Z 29004KT 9999 BKN030 05/04 Q1010
04:50
M
6 °C 10 km+ 1.500 ft 300° 300° 3 kt METAR LIMF 250350Z 30003KT 9999 BKN015 06/04 Q1010
04:20
M
6 °C 10 km+ 1.500 ft 290° 290° 3 kt METAR LIMF 250320Z 29003KT 9999 BKN015 06/04 Q1010
03:50
M
5 °C 10 km+ 1.500 ft Var Var 2 kt METAR LIMF 250250Z VRB02KT 9999 BKN015 05/05 Q1010
03:20
V
6 °C 10 km+ 4.000 ft 320° 320° 4 kt METAR LIMF 250220Z 32004KT 9999 BKN040 06/04 Q1010
02:50
M
6 °C 10 km+ 2.500 ft 290° 290° 3 kt METAR LIMF 250150Z 29003KT 9999 BKN025 06/05 Q1010
02:20
M
6 °C 10 km+ 2.000 ft 280° 280° 3 kt METAR LIMF 250120Z 28003KT 9999 BKN020 06/05 Q1010
01:50
M
6 °C 10 km+ 1.500 ft Var Var 2 kt METAR LIMF 250050Z VRB02KT 9999 BKN015 06/05 Q1010
01:20
M
6 °C 10 km+ 1.500 ft 070° 070° 4 kt METAR LIMF 250020Z 07004KT 9999 BKN015 06/04 Q1010
00:50
M
7 °C 10 km+ 1.500 ft 020° 020° 2 kt METAR LIMF 242350Z 02002KT 9999 BKN015 07/05 Q1010
00:20
M
7 °C 10 km+ 3.000 ft 300° 300° 3 kt METAR LIMF 242320Z 30003KT 9999 SCT015 BKN030 07/04 Q1010

24 de febrero de 2024

Hora Código Tiempo Temp. Visibilidad Cielo nuboso Viento METAR/SPECI
23:50
M
7 °C 10 km+ 3.000 ft 340° 340° 4 kt METAR LIMF 242250Z 34004KT 9999 SCT015 BKN030 07/05 Q1010
23:20
V
7 °C 10 km+ 3.500 ft 010° 010° 4 kt METAR LIMF 242220Z 01004KT 9999 SCT015 BKN035 07/05 Q1010
22:50
V
7 °C 10 km+ 3.500 ft 020° 020° 4 kt METAR LIMF 242150Z 02004KT 9999 SCT015 BKN035 07/05 Q1010
22:20
V
7 °C 10 km+ 4.000 ft 020° 020° 5 kt METAR LIMF 242120Z 02005KT 9999 SCT020 BKN040 07/06 Q1009
21:50
V
7 °C 10 km+ 4.000 ft 020° 020° 5 kt METAR LIMF 242050Z 02005KT 9999 SCT020 BKN040 07/05 Q1009
21:20
V
7 °C 10 km+ 4.000 ft 020° 020° 6 kt METAR LIMF 242020Z 02006KT 9999 SCT020 BKN040 07/05 Q1009
20:50
V
7 °C 10 km+ - 030° 030° 3 kt METAR LIMF 241950Z 03003KT 9999 SCT020 SCT040 07/05 Q1009
20:20
V
6 °C 10 km+ - Var Var 2 kt METAR LIMF 241920Z VRB02KT 9999 SCT040 SCT090 06/05 Q1008
19:50
V
6 °C 10 km+ - 030° 030° 2 kt METAR LIMF 241850Z 03002KT 9999 SCT030 SCT090 06/05 Q1008
19:20
V
7 °C 10 km+ - 330° 330° 2 kt METAR LIMF 241820Z 33002KT 9999 FEW090 07/04 Q1008
18:50
V
7 °C 10 km+ - 310° 310° 3 kt METAR LIMF 241750Z 31003KT 9999 SCT090 07/04 Q1007
18:20
V
7 °C 10 km+ - 270° 270° 3 kt METAR LIMF 241720Z 27003KT 250V310 9999 SCT090 07/04 Q1007
17:50
V
7 °C 10 km+ - 320° 320° 7 kt METAR LIMF 241650Z 32007KT 300V360 9999 SCT025 SCT090 07/05 Q1006 RERA
17:20
V
7 °C 8 km - 290° 290° 10 kt METAR LIMF 241620Z 29010KT 8000 RA SCT020 SCT050 07/05 Q1007
16:50
V
9 °C 10 km+ 5.000 ft 060° 060° 3 kt METAR LIMF 241550Z 06003KT 9999 SCT020 BKN050 09/05 Q1006
16:20
V
9 °C 8 km - 090° 090° 5 kt METAR LIMF 241520Z 09005KT 020V160 8000 SCT012 09/05 Q1006
15:50
M
9 °C 7 km - 080° 080° 5 kt METAR LIMF 241450Z 08005KT 040V110 7000 SCT012 09/06 Q1006
15:20
M
9 °C 7 km - 110° 110° 8 kt METAR LIMF 241420Z 11008KT 7000 FEW012 09/05 Q1006
14:50
M
9 °C 7 km - 090° 090° 10 kt METAR LIMF 241350Z 09010KT 7000 FEW012 09/06 Q1006
14:20
M
9 °C 6 km - 100° 100° 8 kt METAR LIMF 241320Z 10008KT 6000 FEW012 SCT045 09/06 Q1006
13:50
M
9 °C 6 km 3.500 ft 100° 100° 7 kt METAR LIMF 241250Z 10007KT 6000 SCT010 BKN035 09/06 Q1006
13:20
M
9 °C 6 km 3.000 ft 090° 090° 7 kt METAR LIMF 241220Z 09007KT 060V120 6000 SCT010 BKN030 09/06 Q1006
12:50
M
9 °C 7 km - 070° 070° 5 kt METAR LIMF 241150Z 07005KT 360V120 7000 SCT015 SCT030 09/06 Q1006
12:20
M
9 °C 7 km 3.000 ft 030° 030° 4 kt METAR LIMF 241120Z 03004KT 010V070 7000 SCT015 BKN030 09/05 Q1006
11:50
M
8 °C 7 km 3.000 ft 060° 060° 4 kt METAR LIMF 241050Z 06004KT 030V090 7000 SCT015 BKN030 08/05 Q1006
11:20
M
8 °C 7 km 2.500 ft 090° 090° 3 kt METAR LIMF 241020Z 09003KT 030V180 7000 SCT015 BKN025 08/05 Q1006
10:50
M
7 °C 7 km 2.500 ft 080° 080° 7 kt METAR LIMF 240950Z 08007KT 7000 SCT015 BKN025 07/05 Q1005
10:20
M
8 °C 7 km - 070° 070° 6 kt METAR LIMF 240920Z 07006KT 7000 SCT015 SCT030 08/05 Q1005
09:50
M
8 °C 7 km - Var Var 2 kt METAR LIMF 240850Z VRB02KT 7000 SCT015 SCT030 08/05 Q1005
09:20
M
7 °C 7 km - 290° 290° 4 kt METAR LIMF 240820Z 29004KT 270V340 7000 SCT015 SCT030 07/04 Q1005
08:50
M
6 °C 7 km 3.000 ft Var Var 2 kt METAR LIMF 240750Z VRB02KT 7000 SCT010 BKN030 06/04 Q1005
08:20
M
6 °C 5 km 3.000 ft Var Var 1 kt METAR LIMF 240720Z VRB01KT 5000 BR SCT010 BKN030 06/06 Q1004
07:50
M
6 °C 5 km 3.000 ft Var Var 1 kt METAR LIMF 240650Z VRB01KT 5000 BR SCT010 BKN030 06/06 Q1004
07:20
M
6 °C 5 km 3.000 ft 130° 130° 2 kt METAR LIMF 240620Z 13002KT 5000 BR SCT010 BKN030 06/06 Q1004
06:50
M
6 °C 8 km 1.500 ft 280° 280° 3 kt METAR LIMF 240550Z 28003KT 8000 FEW009 BKN015 06/05 Q1003
06:20
V
7 °C 8 km - 350° 350° 2 kt METAR LIMF 240520Z 35002KT 8000 SCT012 07/04 Q1003
05:50
V
6 °C 8 km - Var Var 1 kt METAR LIMF 240450Z VRB01KT 8000 FEW007 06/05 Q1003
05:20
V
6 °C 8 km - 080° 080° 2 kt METAR LIMF 240420Z 08002KT 8000 FEW010 06/06 Q1002
04:50
V
6 °C 8 km - 030° 030° 4 kt METAR LIMF 240350Z 03004KT 8000 FEW006 06/06 Q1002
04:20
V
5 °C 8 km - 360° 360° 5 kt METAR LIMF 240320Z 36005KT 8000 FEW006 05/04 Q1002
03:50
V
5 °C 8 km - 340° 340° 4 kt METAR LIMF 240250Z 34004KT 8000 SCT015 SCT020 05/04 Q1001
03:20
V
4 °C 8 km - 010° 010° 3 kt METAR LIMF 240220Z 01003KT 350V070 8000 FEW015 04/04 Q1001
02:50
V
4 °C 8 km - 350° 350° 4 kt METAR LIMF 240150Z 35004KT 8000 FEW020 04/03 Q1001
02:20
V
6 °C 8 km - 320° 320° 5 kt METAR LIMF 240120Z 32005KT 8000 SCT020 06/05 Q1001
01:50
V
5 °C 8 km - 020° 020° 3 kt METAR LIMF 240050Z 02003KT 8000 SCT020 05/04 Q1000
01:20
V
5 °C 8 km - 050° 050° 3 kt METAR LIMF 240020Z 05003KT 010V070 8000 FEW020 05/05 Q1000
00:50
V
5 °C 8 km - 040° 040° 3 kt METAR LIMF 232350Z 04003KT 8000 FEW020 05/05 Q1000
00:20
V
4 °C 8 km - Var Var 1 kt METAR LIMF 232320Z VRB01KT 8000 NSC 04/04 Q1000

23 de febrero de 2024

Hora Código Tiempo Temp. Visibilidad Cielo nuboso Viento METAR/SPECI
23:50
V
6 °C 8 km - 320° 320° 3 kt METAR LIMF 232250Z 32003KT 280V350 8000 NSC 06/06 Q0999
23:20
V
6 °C 8 km - Var Var 1 kt METAR LIMF 232220Z VRB01KT 8000 SCT030 06/06 Q0999
22:50
V
5 °C 8 km - Var Var 2 kt METAR LIMF 232150Z VRB02KT 8000 NSC 05/05 Q0999
22:20
V
7 °C 10 km+ - 290° 290° 3 kt METAR LIMF 232120Z 29003KT CAVOK 07/06 Q0999
21:50
V
8 °C 10 km+ - 320° 320° 4 kt METAR LIMF 232050Z 32004KT CAVOK 08/06 Q0999
21:20
V
7 °C 10 km+ - 350° 350° 5 kt METAR LIMF 232020Z 35005KT CAVOK 07/06 Q0998
20:50
V
8 °C 10 km+ - 340° 340° 3 kt METAR LIMF 231950Z 34003KT CAVOK 08/07 Q0998
20:20
V
8 °C 10 km+ - 360° 360° 3 kt METAR LIMF 231920Z 36003KT 330V040 9999 SCT030 08/07 Q0998
19:50
V
8 °C 10 km+ - Var Var 2 kt METAR LIMF 231850Z VRB02KT 9999 SCT030 08/06 Q0998
19:20
M
9 °C 10 km+ 3.000 ft 070° 070° 5 kt METAR LIMF 231820Z 07005KT 9999 BKN030 09/07 Q0997
18:50
V
9 °C 10 km+ 3.500 ft 060° 060° 4 kt METAR LIMF 231750Z 06004KT 9999 BKN035 09/07 Q0997
18:20
V
9 °C 10 km+ - 090° 090° 4 kt METAR LIMF 231720Z 09004KT 9999 SCT035 09/05 Q0996
17:50
V
11 °C 10 km+ - 090° 090° 3 kt METAR LIMF 231650Z 09003KT 9999 SCT035 11/04 Q0996
17:20
V
11 °C 10 km+ - 060° 060° 4 kt METAR LIMF 231620Z 06004KT 9999 FEW030 11/04 Q0996
16:50
V
11 °C 10 km+ - 080° 080° 3 kt METAR LIMF 231550Z 08003KT 9999 FEW030 11/05 Q0995
16:20
V
12 °C 10 km+ - 130° 130° 3 kt METAR LIMF 231520Z 13003KT 090V170 9999 FEW025 12/04 Q0995
15:50
V
12 °C 10 km+ - 120° 120° 4 kt METAR LIMF 231450Z 12004KT 080V160 9999 FEW020 12/05 Q0995
15:20
V
12 °C 10 km+ - 120° 120° 3 kt METAR LIMF 231420Z 12003KT 040V180 9999 FEW020 12/04 Q0995
14:50
V
11 °C 10 km+ - 080° 080° 3 kt METAR LIMF 231350Z 08003KT 340V130 9999 FEW015 SCT030 11/05 Q0995
14:20
V
12 °C 10 km+ - 070° 070° 4 kt METAR LIMF 231320Z 07004KT 040V110 9999 FEW015 SCT030 12/06 Q0996
13:50
M
11 °C 10 km+ 3.000 ft 350° 350° 5 kt METAR LIMF 231250Z 35005KT 280V040 9999 FEW015 BKN030 11/06 Q0996
13:20
M
11 °C 10 km+ 3.000 ft Var Var 3 kt METAR LIMF 231220Z VRB03KT 9999 FEW015 BKN030 11/06 Q0997
12:50
M
10 °C 10 km+ 3.000 ft Var Var 1 kt METAR LIMF 231150Z VRB01KT 9999 FEW015 BKN030 10/06 Q0997
12:20
M
10 °C 10 km+ 3.000 ft Var Var 2 kt METAR LIMF 231120Z VRB02KT 9999 FEW015 BKN030 10/06 Q0997
11:50
V
9 °C 10 km+ 3.500 ft Var Var 2 kt METAR LIMF 231050Z VRB02KT 9999 FEW015 BKN035 09/06 Q0997
11:20
V
9 °C 10 km+ 4.000 ft 150° 150° 3 kt METAR LIMF 231020Z 15003KT 110V220 9999 FEW020 BKN040 BKN100 09/06 Q0997
10:50
M
9 °C 10 km+ 1.600 ft 140° 140° 3 kt METAR LIMF 230950Z 14003KT 120V180 9999 BKN016 BKN100 09/07 Q0997
10:20
V
8 °C 10 km+ 10.000 ft Var Var 1 kt METAR LIMF 230920Z VRB01KT 9999 SCT015 BKN100 08/07 Q0997
09:50
V
8 °C 10 km+ 11.000 ft 130° 130° 1 kt METAR LIMF 230850Z 13001KT 9999 FEW015 SCT040 BKN110 08/06 Q0998
09:20
M
8 °C 8 km 1.500 ft Var Var 1 kt METAR LIMF 230820Z VRB01KT 8000 BKN015 BKN040 08/07 Q0997
08:50
M
7 °C 8 km 1.100 ft 020° 020° 3 kt METAR LIMF 230750Z 02003KT 8000 SCT007 BKN011 07/07 Q0997
08:20
I
7 °C 4 km 1.000 ft 330° 330° 4 kt METAR LIMF 230720Z 33004KT 4000 -DZ BR SCT005 BKN010 07/07 Q0998 REDZ
07:50
I
7 °C 2,5 km 500 ft 280° 280° 4 kt METAR LIMF 230650Z 28004KT 2500 DZ BR BKN005 OVC008 07/07 Q0998
07:20
M
7 °C 7 km 1.000 ft Var Var 1 kt METAR LIMF 230620Z VRB01KT 7000 BKN010 07/07 Q0998
06:50
M
7 °C 7 km 1.200 ft 150° 150° 3 kt METAR LIMF 230550Z 15003KT 120V200 7000 OVC012 07/07 Q0998